Darstellungsparameter: Aktuell verwendete Einstellungen:
Skalierung der Graphiken ... ?
xyx+y,   Skalierungsfaktor:      Skalierung: Modus: x, Faktor: 1
Darstellungszeitraum ... ?
Vom - - bis: - -   Zeitraum: 18.06.2010 - 22.06.2010
Min/Max/Avg-Anzeige ... ?
Zeige MMA aktuell
Zeige MMA Monat
Zeige MMA alles
Zeige --A aktuell
Zeige --A Monat
Zeige --A alles
Keine MMA-Anzeige
MMA:
Minimum Maximum Average (ber die Originaldaten)
MMA-Basis: 14.04.2020 - 16.05.2020
Quicknavigation für Darstellung... ?
Tage:      1T, 2T, 3T, 5T -1T -2T -3T -5T +1T +2T +3T +5T
Wochen: 1W, 2W, 3W -1W -2W -3W +1W +2W +3W
Monate: 1M, 3M, 6M -1M -3M -6M +1M +3M +6M
Jahre:    1J, 3J, 5J, 10J -1J -3J -5J -10J +1J +3J +5J +10J
Nutze für die Darstellung ... ?
Originaldaten oder Mittelwerte auf ...
Stundenbasis Tagesbasis Wochenbasis
Monatsbasis Jahresbasis      Datenbasis: Original-Daten
Darstellen als:
Statistik (Auto) Statistik J:M      Darstellung:
Zur Graphik,    zurück zur Übersicht aller Sensoren.
 
Tabellarische Datenbersicht: ?
 
Sensor: Nr:Datum:Temp:Abs-Feuchte:Windchill:Wind:
Aussen-T/F 1 18-06-2010 00:02:02 14 C 10.98 g/m*3 14 C 0 km/h
2 18-06-2010 00:14:02 13.8 C 10.84 g/m*3 13.8 C 0 km/h
3 18-06-2010 00:26:02 13.7 C 10.89 g/m*3 13.7 C 0 km/h
4 18-06-2010 00:38:02 13.7 C 10.89 g/m*3 13.7 C 0 km/h
5 18-06-2010 00:50:02 13.8 C 10.96 g/m*3 13.8 C 0 km/h
6 18-06-2010 01:02:02 14 C 11.1 g/m*3 14 C 0 km/h
7 18-06-2010 01:14:02 14 C 11.1 g/m*3 14 C 0 km/h
8 18-06-2010 01:26:02 14 C 11.1 g/m*3 14 C 0 km/h
9 18-06-2010 01:38:02 14.1 C 11.17 g/m*3 14.1 C 0 km/h
10 18-06-2010 01:50:02 14.1 C 11.17 g/m*3 14.1 C 0 km/h
11 18-06-2010 02:02:02 14 C 11.1 g/m*3 14 C 0 km/h
12 18-06-2010 02:14:02 13.9 C 11.03 g/m*3 13.9 C 0 km/h
13 18-06-2010 02:26:02 13.8 C 10.96 g/m*3 13.8 C 0 km/h
14 18-06-2010 02:38:02 13.6 C 10.83 g/m*3 13.6 C 0 km/h
15 18-06-2010 02:50:03 13.5 C 10.76 g/m*3 13.5 C 0 km/h
16 18-06-2010 03:02:03 13.4 C 10.69 g/m*3 13.4 C 0 km/h
17 18-06-2010 03:14:03 13.6 C 10.83 g/m*3 13.6 C 0 km/h
18 18-06-2010 03:26:03 13.7 C 10.89 g/m*3 13.7 C 0 km/h
19 18-06-2010 03:38:03 13.5 C 10.76 g/m*3 13.5 C 0 km/h
20 18-06-2010 03:50:03 13.2 C 10.45 g/m*3 13.2 C 0 km/h
21 18-06-2010 04:02:03 12.9 C 10.26 g/m*3 12.9 C 0 km/h
22 18-06-2010 04:14:03 12.7 C 10.13 g/m*3 12.7 C 0 km/h
23 18-06-2010 04:26:03 12.4 C 9.94 g/m*3 12.4 C 0 km/h
24 18-06-2010 04:38:03 12.3 C 9.88 g/m*3 12.3 C 0 km/h
25 18-06-2010 04:50:03 12.2 C 9.82 g/m*3 12.2 C 0 km/h
Sensor: Nr:Datum:Temp:Abs-Feuchte:Windchill:Wind:
Aussen-T/F 26 18-06-2010 05:02:03 12.2 C 9.82 g/m*3 12.2 C 0 km/h
27 18-06-2010 05:14:03 12.2 C 9.82 g/m*3 12.2 C 0 km/h
28 18-06-2010 05:26:03 12.1 C 9.76 g/m*3 12.1 C 0 km/h
29 18-06-2010 05:38:03 12 C 9.7 g/m*3 12 C 0 km/h
30 18-06-2010 05:50:03 12 C 9.7 g/m*3 12 C 0 km/h
31 18-06-2010 06:02:03 12 C 9.7 g/m*3 12 C 0 km/h
32 18-06-2010 06:14:03 12.1 C 9.76 g/m*3 12.1 C 0 km/h
33 18-06-2010 06:26:03 12.2 C 9.82 g/m*3 12.2 C 0 km/h
34 18-06-2010 06:38:03 12.2 C 9.82 g/m*3 12.2 C 0 km/h
35 18-06-2010 06:50:04 12.4 C 9.83 g/m*3 12.4 C 0 km/h
36 18-06-2010 07:02:02 12.5 C 9.89 g/m*3 12.5 C 0 km/h
37 18-06-2010 07:14:02 12.7 C 9.91 g/m*3 12.7 C 0 km/h
38 18-06-2010 07:26:02 12.8 C 9.86 g/m*3 12.8 C 0 km/h
39 18-06-2010 07:38:02 12.8 C 9.86 g/m*3 12.8 C 0 km/h
40 18-06-2010 07:50:02 12.9 C 9.81 g/m*3 12.9 C 0 km/h
41 18-06-2010 08:02:02 13.1 C 9.7 g/m*3 13.1 C 0 km/h
42 18-06-2010 08:14:02 13.4 C 9.76 g/m*3 13.4 C 0 km/h
43 18-06-2010 08:26:02 13.5 C 9.83 g/m*3 13.5 C 0 km/h
44 18-06-2010 08:38:02 13.8 C 9.89 g/m*3 13.8 C 0 km/h
45 18-06-2010 08:50:02 14.4 C 10.01 g/m*3 14.4 C 0 km/h
46 18-06-2010 09:02:02 14.8 C 9.88 g/m*3 14.8 C 0 km/h
47 18-06-2010 09:14:02 15 C 9.49 g/m*3 15 C 0 km/h
48 18-06-2010 09:26:02 15.5 C 9.78 g/m*3 15.5 C 0 km/h
49 18-06-2010 09:38:02 15.7 C 9.77 g/m*3 15.7 C 0 km/h
50 18-06-2010 09:50:02 16.4 C 9.77 g/m*3 16.4 C 0 km/h
Sensor: Nr:Datum:Temp:Abs-Feuchte:Windchill:Wind:
Aussen-T/F 51 18-06-2010 10:02:03 16.5 C 9.27 g/m*3 16.5 C 0 km/h
52 18-06-2010 10:14:03 16.6 C 9.46 g/m*3 16.6 C 0 km/h
53 18-06-2010 10:26:02 16.3 C 9.43 g/m*3 16.3 C 0 km/h
54 18-06-2010 10:38:02 17 C 9.55 g/m*3 17 C 0 km/h
55 18-06-2010 10:50:02 16.4 C 8.93 g/m*3 16.4 C 0 km/h
56 18-06-2010 11:02:02 16.2 C 9.1 g/m*3 16.2 C 0 km/h
57 18-06-2010 11:14:02 15.9 C 9.07 g/m*3 15.9 C 0 km/h
58 18-06-2010 11:26:01 16.3 C 9.02 g/m*3 16.3 C 0 km/h
59 18-06-2010 11:38:02 16.6 C 8.9 g/m*3 16.6 C 0 km/h
60 18-06-2010 11:50:02 15.9 C 8.53 g/m*3 15.9 C 0 km/h
61 18-06-2010 12:02:02 15.9 C 8.94 g/m*3 15.9 C 0 km/h
62 18-06-2010 12:14:02 15.5 C 8.59 g/m*3 15.5 C 0 km/h
63 18-06-2010 12:26:01 15.3 C 8.88 g/m*3 15.3 C 0 km/h
64 18-06-2010 12:38:02 15 C 8.72 g/m*3 15 C 0 km/h
65 18-06-2010 12:50:02 15.6 C 8.91 g/m*3 15.6 C 0 km/h
66 18-06-2010 13:02:02 15.7 C 8.7 g/m*3 15.7 C 0 km/h
67 18-06-2010 13:14:03 16.3 C 8.6 g/m*3 16.3 C 0 km/h
68 18-06-2010 13:26:01 16.1 C 8.64 g/m*3 16.1 C 0 km/h
69 18-06-2010 13:38:02 15.8 C 8.48 g/m*3 15.8 C 0 km/h
70 18-06-2010 13:50:02 15.3 C 8.49 g/m*3 15.3 C 0 km/h
71 18-06-2010 14:02:02 15.3 C 8.49 g/m*3 15.3 C 0 km/h
72 18-06-2010 14:14:02 14.9 C 8.54 g/m*3 14.9 C 0 km/h
73 18-06-2010 14:26:01 14.7 C 8.44 g/m*3 14.7 C 0 km/h
74 18-06-2010 14:38:02 14.5 C 8.46 g/m*3 14.5 C 0 km/h
75 18-06-2010 14:50:02 14.9 C 8.54 g/m*3 14.9 C 0 km/h
Sensor: Nr:Datum:Temp:Abs-Feuchte:Windchill:Wind:
Aussen-T/F 76 18-06-2010 15:02:02 15.4 C 8.54 g/m*3 15.4 C 0 km/h
77 18-06-2010 15:14:03 14.5 C 8.33 g/m*3 14.5 C 0 km/h
78 18-06-2010 15:26:02 14.9 C 8.54 g/m*3 14.9 C 0 km/h
79 18-06-2010 15:38:02 15.2 C 8.44 g/m*3 15.2 C 0 km/h
80 18-06-2010 15:50:02 14.7 C 8.18 g/m*3 14.7 C 0 km/h
81 18-06-2010 16:02:03 14.8 C 8.49 g/m*3 14.8 C 0 km/h
82 18-06-2010 16:14:03 14.7 C 8.44 g/m*3 14.7 C 0 km/h
83 18-06-2010 16:26:03 15 C 8.33 g/m*3 15 C 0 km/h
84 18-06-2010 16:38:02 15.6 C 8.38 g/m*3 15.6 C 0 km/h
85 18-06-2010 16:50:01 16.8 C 7.86 g/m*3 16.8 C 0 km/h
86 18-06-2010 17:02:02 17.9 C 7.94 g/m*3 17.9 C 0 km/h
87 18-06-2010 17:14:02 19.1 C 7.21 g/m*3 19.1 C 0 km/h
88 18-06-2010 17:26:01 19.2 C 6.93 g/m*3 19.2 C 0 km/h
89 18-06-2010 17:38:02 19.8 C 7.34 g/m*3 19.8 C 0 km/h
90 18-06-2010 17:50:02 19.8 C 6.83 g/m*3 19.8 C 0 km/h
91 18-06-2010 18:02:03 21 C 6.96 g/m*3 21 C 0 km/h
92 18-06-2010 18:14:03 20.8 C 6.88 g/m*3 20.8 C 0 km/h
93 18-06-2010 18:26:02 21.5 C 6.98 g/m*3 21.5 C 0 km/h
94 18-06-2010 18:38:02 21.8 C 6.91 g/m*3 21.8 C 0 km/h
95 18-06-2010 18:50:02 22.2 C 6.87 g/m*3 22.2 C 0 km/h
96 18-06-2010 19:02:02 20.8 C 6.7 g/m*3 20.8 C 0 km/h
97 18-06-2010 19:14:02 19.9 C 7.04 g/m*3 19.9 C 0 km/h
98 18-06-2010 19:26:02 19.1 C 7.21 g/m*3 19.1 C 0 km/h
99 18-06-2010 19:38:02 18.9 C 7.45 g/m*3 18.9 C 0 km/h
100 18-06-2010 19:50:02 18.9 C 7.61 g/m*3 18.9 C 0 km/h
Sensor: Nr:Datum:Temp:Abs-Feuchte:Windchill:Wind:
Aussen-T/F 101 18-06-2010 20:02:02 18.5 C 7.44 g/m*3 18.5 C 0 km/h
102 18-06-2010 20:14:02 18.1 C 7.42 g/m*3 18.1 C 0 km/h
103 18-06-2010 20:26:02 17.8 C 7.59 g/m*3 17.8 C 0 km/h
104 18-06-2010 20:38:02 17.5 C 7.75 g/m*3 17.5 C 0 km/h
105 18-06-2010 20:50:01 17.2 C 7.91 g/m*3 17.2 C 0 km/h
106 18-06-2010 21:02:02 16 C 8.72 g/m*3 16 C 0 km/h
107 18-06-2010 21:14:02 15 C 9.36 g/m*3 15 C 0 km/h
108 18-06-2010 21:26:01 14.8 C 9.75 g/m*3 14.8 C 0 km/h
109 18-06-2010 21:38:01 14.7 C 9.82 g/m*3 14.7 C 0 km/h
110 18-06-2010 21:50:01 14.6 C 9.89 g/m*3 14.6 C 0 km/h
111 18-06-2010 22:02:01 14.7 C 9.82 g/m*3 14.7 C 0 km/h
112 18-06-2010 22:14:01 14.7 C 9.57 g/m*3 14.7 C 0 km/h
113 18-06-2010 22:26:02 14.8 C 9.5 g/m*3 14.8 C 0 km/h
114 18-06-2010 22:38:01 15 C 9.49 g/m*3 15 C 0 km/h
115 18-06-2010 22:50:02 15.1 C 9.29 g/m*3 15.1 C 0 km/h
116 18-06-2010 23:02:01 15 C 9.23 g/m*3 15 C 0 km/h
117 18-06-2010 23:14:01 14.8 C 8.61 g/m*3 14.8 C 0 km/h
118 18-06-2010 23:27:04 14.8 C 6.84 g/m*3 14.8 C 0 km/h
119 18-06-2010 23:39:04 14.7 C 6.55 g/m*3 14.7 C 0 km/h
120 18-06-2010 23:51:04 14.7 C 6.42 g/m*3 14.7 C 0 km/h
121 19-06-2010 00:03:04 14.6 C 6.63 g/m*3 14.6 C 0 km/h
122 19-06-2010 00:15:04 14.5 C 6.72 g/m*3 14.5 C 0 km/h
123 19-06-2010 00:27:04 14.4 C 6.92 g/m*3 14.4 C 0 km/h
124 19-06-2010 00:39:04 14.3 C 7.13 g/m*3 14.3 C 0 km/h
125 19-06-2010 00:51:04 14.2 C 7.08 g/m*3 14.2 C 0 km/h
Sensor: Nr:Datum:Temp:Abs-Feuchte:Windchill:Wind:
Aussen-T/F 126 19-06-2010 01:03:04 14 C 7.12 g/m*3 14 C 0 km/h
127 19-06-2010 01:15:04 13.8 C 7.27 g/m*3 13.8 C 0 km/h
128 19-06-2010 01:27:05 13.6 C 7.18 g/m*3 13.6 C 0 km/h
129 19-06-2010 01:39:05 13.4 C 7.09 g/m*3 13.4 C 0 km/h
130 19-06-2010 01:51:05 13.2 C 7 g/m*3 13.2 C 0 km/h
131 19-06-2010 02:03:05 12.8 C 6.94 g/m*3 12.8 C 0 km/h
132 19-06-2010 02:15:05 12.7 C 6.9 g/m*3 12.7 C 0 km/h
133 19-06-2010 02:27:05 12.5 C 6.82 g/m*3 12.5 C 0 km/h
134 19-06-2010 02:39:05 12.4 C 6.77 g/m*3 12.4 C 0 km/h
135 19-06-2010 02:51:05 12.4 C 6.77 g/m*3 12.4 C 0 km/h
136 19-06-2010 03:03:05 12.5 C 6.82 g/m*3 12.5 C 0 km/h
137 19-06-2010 03:15:05 12.5 C 6.71 g/m*3 12.5 C 0 km/h
138 19-06-2010 03:27:05 12.1 C 6.54 g/m*3 12.1 C 0 km/h
139 19-06-2010 03:39:05 11.8 C 6.74 g/m*3 11.8 C 0 km/h
140 19-06-2010 03:51:05 11.5 C 6.61 g/m*3 11.5 C 0 km/h
141 19-06-2010 04:03:05 11.2 C 6.49 g/m*3 11.2 C 0 km/h
142 19-06-2010 04:15:05 11 C 6.51 g/m*3 11 C 0 km/h
143 19-06-2010 04:27:05 10.9 C 6.56 g/m*3 10.9 C 0 km/h
144 19-06-2010 04:39:05 10.7 C 6.58 g/m*3 10.7 C 0 km/h
145 19-06-2010 04:51:05 10.9 C 6.66 g/m*3 10.9 C 0 km/h
146 19-06-2010 05:03:05 11 C 6.61 g/m*3 11 C 0 km/h
147 19-06-2010 05:15:05 11.1 C 6.55 g/m*3 11.1 C 0 km/h
148 19-06-2010 05:27:06 11.2 C 6.59 g/m*3 11.2 C 0 km/h
149 19-06-2010 05:39:06 11.2 C 6.59 g/m*3 11.2 C 0 km/h
150 19-06-2010 05:51:06 11.2 C 6.59 g/m*3 11.2 C 0 km/h
Sensor: Nr:Datum:Temp:Abs-Feuchte:Windchill:Wind:
Aussen-T/F 151 19-06-2010 06:03:06 11.4 C 6.77 g/m*3 11.4 C 0 km/h
152 19-06-2010 06:15:06 11.4 C 6.77 g/m*3 11.4 C 0 km/h
153 19-06-2010 06:27:06 11.5 C 6.82 g/m*3 11.5 C 0 km/h
154 19-06-2010 06:39:06 11.6 C 6.86 g/m*3 11.6 C 0 km/h
155 19-06-2010 06:51:06 11.6 C 6.86 g/m*3 11.6 C 0 km/h
156 19-06-2010 07:03:06 11.8 C 6.84 g/m*3 11.8 C 0 km/h
157 19-06-2010 07:15:06 11.8 C 6.84 g/m*3 11.8 C 0 km/h
158 19-06-2010 07:27:06 12 C 6.71 g/m*3 12 C 0 km/h
159 19-06-2010 07:39:06 11.9 C 6.57 g/m*3 11.9 C 0 km/h
160 19-06-2010 07:51:06 11.8 C 6.53 g/m*3 11.8 C 0 km/h
161 19-06-2010 08:03:06 12 C 6.5 g/m*3 12 C 0 km/h
162 19-06-2010 08:15:03 12 C 6.39 g/m*3 12 C 0 km/h
163 19-06-2010 08:27:03 12 C 6.5 g/m*3 12 C 0 km/h
164 19-06-2010 08:39:03 11.9 C 6.46 g/m*3 11.9 C 0 km/h
165 19-06-2010 08:51:02 11.9 C 6.46 g/m*3 11.9 C 0 km/h
166 19-06-2010 09:03:02 11.8 C 6.63 g/m*3 11.8 C 0 km/h
167 19-06-2010 09:15:03 12.1 C 6.97 g/m*3 12.1 C 0 km/h
168 19-06-2010 09:27:03 12.8 C 6.61 g/m*3 12.8 C 0 km/h
169 19-06-2010 09:39:02 12.9 C 6.42 g/m*3 12.9 C 0 km/h
170 19-06-2010 09:51:02 12.8 C 6.38 g/m*3 12.8 C 0 km/h
171 19-06-2010 10:03:02 12.9 C 6.31 g/m*3 12.9 C 0 km/h
172 19-06-2010 10:15:02 11.6 C 6.65 g/m*3 11.6 C 0 km/h
173 19-06-2010 10:27:02 11.8 C 6.95 g/m*3 11.8 C 0 km/h
174 19-06-2010 10:39:02 12.4 C 6.77 g/m*3 12.4 C 0 km/h
175 19-06-2010 10:51:02 12.4 C 6.45 g/m*3 12.4 C 0 km/h
Sensor: Nr:Datum:Temp:Abs-Feuchte:Windchill:Wind:
Aussen-T/F 176 19-06-2010 11:03:02 12.9 C 6.31 g/m*3 12.9 C 0 km/h
177 19-06-2010 11:15:02 13.6 C 6.47 g/m*3 13.6 C 0 km/h
178 19-06-2010 11:27:02 13.8 C 5.96 g/m*3 13.8 C 0 km/h
179 19-06-2010 11:39:02 15.8 C 6.19 g/m*3 15.8 C 0 km/h
180 19-06-2010 11:51:02 17.6 C 6.15 g/m*3 17.6 C 0 km/h
181 19-06-2010 12:03:02 16.6 C 5.65 g/m*3 16.6 C 0 km/h
182 19-06-2010 12:15:02 18.1 C 5.41 g/m*3 18.1 C 0 km/h
183 19-06-2010 12:27:02 16.9 C 5.03 g/m*3 16.9 C 0 km/h
184 19-06-2010 12:39:01 15.5 C 5.29 g/m*3 15.5 C 0 km/h
185 19-06-2010 12:51:02 14.3 C 5.41 g/m*3 14.3 C 0 km/h
186 19-06-2010 13:03:01 13.4 C 6.16 g/m*3 13.4 C 0 km/h
187 19-06-2010 13:15:02 15 C 6.28 g/m*3 15 C 0 km/h
188 19-06-2010 13:27:02 17.3 C 5.89 g/m*3 17.3 C 0 km/h
189 19-06-2010 13:39:01 20.4 C 5.48 g/m*3 20.4 C 0 km/h
190 19-06-2010 13:51:02 18.7 C 5.44 g/m*3 18.7 C 0 km/h
191 19-06-2010 14:03:02 19.3 C 5.31 g/m*3 19.3 C 0 km/h
192 19-06-2010 14:15:02 19.3 C 4.98 g/m*3 19.3 C 0 km/h
193 19-06-2010 14:27:02 18.3 C 4.69 g/m*3 18.3 C 0 km/h
194 19-06-2010 14:39:02 16.8 C 5 g/m*3 16.8 C 0 km/h
195 19-06-2010 14:51:02 17.6 C 5.1 g/m*3 17.6 C 0 km/h
196 19-06-2010 15:03:01 18.6 C 4.77 g/m*3 18.6 C 0 km/h
197 19-06-2010 15:15:01 18.7 C 4.8 g/m*3 18.7 C 0 km/h
198 19-06-2010 15:27:01 18.7 C 4.96 g/m*3 18.7 C 0 km/h
199 19-06-2010 15:39:02 17.4 C 4.74 g/m*3 17.4 C 0 km/h
200 19-06-2010 15:51:02 18.2 C 4.82 g/m*3 18.2 C 0 km/h
Sensor: Nr:Datum:Temp:Abs-Feuchte:Windchill:Wind:
Aussen-T/F 201 19-06-2010 16:03:02 17.9 C 4.73 g/m*3 17.9 C 0 km/h
202 19-06-2010 16:15:02 17.7 C 5.13 g/m*3 17.7 C 0 km/h
203 19-06-2010 16:27:02 17.9 C 5.04 g/m*3 17.9 C 0 km/h
204 19-06-2010 16:39:02 19.9 C 5.33 g/m*3 19.9 C 0 km/h
205 19-06-2010 16:51:02 20.2 C 4.55 g/m*3 20.2 C 0 km/h
206 19-06-2010 17:03:02 18.5 C 4.75 g/m*3 18.5 C 0 km/h
207 19-06-2010 17:15:02 18.2 C 5.13 g/m*3 18.2 C 0 km/h
208 19-06-2010 17:27:02 18 C 4.92 g/m*3 18 C 0 km/h
209 19-06-2010 17:39:02 16.8 C 5.15 g/m*3 16.8 C 0 km/h
210 19-06-2010 17:51:03 16.8 C 5.58 g/m*3 16.8 C 0 km/h
211 19-06-2010 18:03:03 16.7 C 5.26 g/m*3 16.7 C 0 km/h
212 19-06-2010 18:15:02 16.9 C 5.47 g/m*3 16.9 C 0 km/h
213 19-06-2010 18:27:02 16 C 5.59 g/m*3 16 C 0 km/h
214 19-06-2010 18:39:02 16.3 C 5.55 g/m*3 16.3 C 0 km/h
215 19-06-2010 18:51:01 15.8 C 5.52 g/m*3 15.8 C 0 km/h
216 19-06-2010 19:03:03 17.4 C 5.48 g/m*3 17.4 C 0 km/h
217 19-06-2010 19:15:01 17.2 C 5.13 g/m*3 17.2 C 0 km/h
218 19-06-2010 19:27:01 16.6 C 5.09 g/m*3 16.6 C 0 km/h
219 19-06-2010 19:39:02 16.1 C 5.35 g/m*3 16.1 C 0 km/h
220 19-06-2010 19:51:03 16.1 C 5.76 g/m*3 16.1 C 0 km/h
221 19-06-2010 20:03:03 15 C 5.26 g/m*3 15 C 0 km/h
222 19-06-2010 20:15:02 14.8 C 5.57 g/m*3 14.8 C 0 km/h
223 19-06-2010 20:27:03 14.8 C 5.83 g/m*3 14.8 C 0 km/h
224 19-06-2010 20:39:02 14.4 C 5.81 g/m*3 14.4 C 0 km/h
225 19-06-2010 20:51:01 14.5 C 6.09 g/m*3 14.5 C 0 km/h
Sensor: Nr:Datum:Temp:Abs-Feuchte:Windchill:Wind:
Aussen-T/F 226 19-06-2010 21:03:02 14.5 C 6.09 g/m*3 14.5 C 0 km/h
227 19-06-2010 21:15:02 14.3 C 6.02 g/m*3 14.3 C 0 km/h
228 19-06-2010 21:27:02 14.1 C 6.19 g/m*3 14.1 C 0 km/h
229 19-06-2010 21:39:02 14 C 6.27 g/m*3 14 C 0 km/h
230 19-06-2010 21:51:02 13.8 C 6.31 g/m*3 13.8 C 0 km/h
231 19-06-2010 22:03:04 13.6 C 6.24 g/m*3 13.6 C 0 km/h
232 19-06-2010 22:15:15 13.2 C 6.09 g/m*3 13.2 C 0 km/h
233 19-06-2010 22:27:15 12.8 C 5.94 g/m*3 12.8 C 0 km/h
234 19-06-2010 22:39:01 12.6 C 5.97 g/m*3 12.6 C 0 km/h
235 19-06-2010 22:51:02 12.4 C 6.12 g/m*3 12.4 C 0 km/h
236 19-06-2010 23:03:01 11.9 C 6.14 g/m*3 11.9 C 0 km/h
237 19-06-2010 23:15:02 12.2 C 6.26 g/m*3 12.2 C 0 km/h
238 19-06-2010 23:27:02 12.4 C 6.23 g/m*3 12.4 C 0 km/h
239 19-06-2010 23:39:01 12.1 C 6.22 g/m*3 12.1 C 0 km/h
240 19-06-2010 23:51:02 11.8 C 6.31 g/m*3 11.8 C 0 km/h
241 20-06-2010 00:03:02 11.5 C 6.3 g/m*3 11.5 C 0 km/h
242 20-06-2010 00:15:02 11.2 C 6.28 g/m*3 11.2 C 0 km/h
243 20-06-2010 00:27:02 10.8 C 6.33 g/m*3 10.8 C 0 km/h
244 20-06-2010 00:39:02 10.6 C 6.44 g/m*3 10.6 C 0 km/h
245 20-06-2010 00:51:02 10.5 C 6.4 g/m*3 10.5 C 0 km/h
246 20-06-2010 01:03:01 10.6 C 6.15 g/m*3 10.6 C 0 km/h
247 20-06-2010 01:15:02 10.6 C 5.95 g/m*3 10.6 C 0 km/h
248 20-06-2010 01:27:02 10.5 C 5.92 g/m*3 10.5 C 0 km/h
249 20-06-2010 01:40:01 10.4 C 5.88 g/m*3 10.4 C 0 km/h
250 20-06-2010 01:52:01 10.2 C 5.9 g/m*3 10.2 C 0 km/h
Sensor: Nr:Datum:Temp:Abs-Feuchte:Windchill:Wind:
Aussen-T/F 251 20-06-2010 02:04:01 10.1 C 5.96 g/m*3 10.1 C 0 km/h
252 20-06-2010 02:16:01 9.8 C 6.03 g/m*3 9.8 C 0 km/h
253 20-06-2010 02:28:01 9.6 C 6.05 g/m*3 9.6 C 0 km/h
254 20-06-2010 02:40:01 9.4 C 6.06 g/m*3 9.4 C 0 km/h
255 20-06-2010 02:52:01 9.3 C 6.2 g/m*3 9.3 C 0 km/h
256 20-06-2010 03:04:01 9.3 C 6.38 g/m*3 9.3 C 0 km/h
257 20-06-2010 03:16:01 9.5 C 6.46 g/m*3 9.5 C 0 km/h
258 20-06-2010 03:28:02 9.6 C 6.6 g/m*3 9.6 C 0 km/h
259 20-06-2010 03:40:02 9.5 C 6.74 g/m*3 9.5 C 0 km/h
260 20-06-2010 03:52:02 9.4 C 6.69 g/m*3 9.4 C 0 km/h
261 20-06-2010 04:04:02 9.1 C 6.74 g/m*3 9.1 C 0 km/h
262 20-06-2010 04:16:02 9.1 C 6.92 g/m*3 9.1 C 0 km/h
263 20-06-2010 04:28:02 9.2 C 7.05 g/m*3 9.2 C 0 km/h
264 20-06-2010 04:40:02 9.4 C 7.15 g/m*3 9.4 C 0 km/h
265 20-06-2010 04:52:02 9.2 C 7.05 g/m*3 9.2 C 0 km/h
266 20-06-2010 05:04:02 9.2 C 7.05 g/m*3 9.2 C 0 km/h
267 20-06-2010 05:16:02 9.2 C 7.05 g/m*3 9.2 C 0 km/h
268 20-06-2010 05:28:02 9.3 C 7.1 g/m*3 9.3 C 0 km/h
269 20-06-2010 05:40:02 9.4 C 7.15 g/m*3 9.4 C 0 km/h
270 20-06-2010 05:52:02 9.6 C 7.24 g/m*3 9.6 C 0 km/h
271 20-06-2010 06:04:02 9.6 C 7.24 g/m*3 9.6 C 0 km/h
272 20-06-2010 06:16:02 9.7 C 7.28 g/m*3 9.7 C 0 km/h
273 20-06-2010 06:28:02 10.1 C 7.28 g/m*3 10.1 C 0 km/h
274 20-06-2010 06:40:02 10.4 C 7.42 g/m*3 10.4 C 0 km/h
275 20-06-2010 06:52:02 10.6 C 7.32 g/m*3 10.6 C 0 km/h
Sensor: Nr:Datum:Temp:Abs-Feuchte:Windchill:Wind:
Aussen-T/F 276 20-06-2010 07:04:02 10.7 C 7.17 g/m*3 10.7 C 0 km/h
277 20-06-2010 07:16:02 10.7 C 7.17 g/m*3 10.7 C 0 km/h
278 20-06-2010 07:28:02 10.4 C 7.32 g/m*3 10.4 C 0 km/h
279 20-06-2010 07:40:02 10.2 C 7.52 g/m*3 10.2 C 0 km/h
280 20-06-2010 07:52:02 10.2 C 7.71 g/m*3 10.2 C 0 km/h
281 20-06-2010 08:04:01 10.3 C 7.85 g/m*3 10.3 C 0 km/h
282 20-06-2010 08:16:02 10.5 C 8.05 g/m*3 10.5 C 0 km/h
283 20-06-2010 08:28:02 10.4 C 8 g/m*3 10.4 C 0 km/h
284 20-06-2010 08:40:01 10.9 C 8.36 g/m*3 10.9 C 0 km/h
285 20-06-2010 08:52:03 10.8 C 8.2 g/m*3 10.8 C 0 km/h
286 20-06-2010 09:04:02 11.4 C 8.21 g/m*3 11.4 C 0 km/h
287 20-06-2010 09:16:03 12.4 C 8.52 g/m*3 12.4 C 0 km/h
288 20-06-2010 09:28:03 12.5 C 7.92 g/m*3 12.5 C 0 km/h
289 20-06-2010 09:40:02 13 C 7.83 g/m*3 13 C 0 km/h
290 20-06-2010 09:52:02 13.1 C 7.53 g/m*3 13.1 C 0 km/h
291 20-06-2010 10:04:01 13.6 C 7.77 g/m*3 13.6 C 0 km/h
292 20-06-2010 10:16:02 14 C 7.48 g/m*3 14 C 0 km/h
293 20-06-2010 10:28:02 13.7 C 6.99 g/m*3 13.7 C 0 km/h
294 20-06-2010 10:40:02 13.3 C 7.05 g/m*3 13.3 C 0 km/h
295 20-06-2010 10:52:02 13.1 C 6.96 g/m*3 13.1 C 0 km/h
296 20-06-2010 11:04:02 13 C 6.92 g/m*3 13 C 0 km/h
297 20-06-2010 11:16:01 12.6 C 7.08 g/m*3 12.6 C 0 km/h
298 20-06-2010 11:28:01 13.3 C 7.05 g/m*3 13.3 C 0 km/h
299 20-06-2010 11:40:02 14 C 7 g/m*3 14 C 0 km/h
300 20-06-2010 11:52:02 14.3 C 6.63 g/m*3 14.3 C 0 km/h
Sensor: Nr:Datum:Temp:Abs-Feuchte:Windchill:Wind:
Aussen-T/F 301 20-06-2010 12:04:02 14.4 C 6.55 g/m*3 14.4 C 0 km/h
302 20-06-2010 12:16:02 14.9 C 6.75 g/m*3 14.9 C 0 km/h
303 20-06-2010 12:28:02 15.3 C 6.53 g/m*3 15.3 C 0 km/h
304 20-06-2010 12:40:02 16.1 C 6.44 g/m*3 16.1 C 0 km/h
305 20-06-2010 12:52:01 15.6 C 6.25 g/m*3 15.6 C 0 km/h
306 20-06-2010 13:04:02 15.3 C 6.53 g/m*3 15.3 C 0 km/h
307 20-06-2010 13:16:01 15.6 C 6.65 g/m*3 15.6 C 0 km/h
308 20-06-2010 13:28:01 15.8 C 6.46 g/m*3 15.8 C 0 km/h
309 20-06-2010 13:40:01 16.9 C 6.33 g/m*3 16.9 C 0 km/h
310 20-06-2010 13:52:01 18.2 C 5.91 g/m*3 18.2 C 0 km/h
311 20-06-2010 14:04:01 16.9 C 5.47 g/m*3 16.9 C 0 km/h
312 20-06-2010 14:16:02 15.7 C 5.89 g/m*3 15.7 C 0 km/h
313 20-06-2010 14:28:02 15.9 C 6.09 g/m*3 15.9 C 0 km/h
314 20-06-2010 14:40:01 17.4 C 6.22 g/m*3 17.4 C 0 km/h
315 20-06-2010 14:52:02 16.7 C 5.68 g/m*3 16.7 C 0 km/h
316 20-06-2010 15:04:02 17.2 C 5.71 g/m*3 17.2 C 0 km/h
317 20-06-2010 15:16:02 17.6 C 5.85 g/m*3 17.6 C 0 km/h
318 20-06-2010 15:28:02 17.7 C 6.04 g/m*3 17.7 C 0 km/h
319 20-06-2010 15:40:02 18.7 C 6.08 g/m*3 18.7 C 0 km/h
320 20-06-2010 15:52:02 18.1 C 5.72 g/m*3 18.1 C 0 km/h
321 20-06-2010 16:04:02 16.4 C 5.72 g/m*3 16.4 C 0 km/h
322 20-06-2010 16:16:02 16.4 C 5.72 g/m*3 16.4 C 0 km/h
323 20-06-2010 16:28:02 16.7 C 5.97 g/m*3 16.7 C 0 km/h
324 20-06-2010 16:40:03 17.1 C 5.68 g/m*3 17.1 C 0 km/h
325 20-06-2010 16:52:02 17.1 C 5.39 g/m*3 17.1 C 0 km/h
Sensor: Nr:Datum:Temp:Abs-Feuchte:Windchill:Wind:
Aussen-T/F 326 20-06-2010 17:04:01 17 C 5.35 g/m*3 17 C 0 km/h
327 20-06-2010 17:16:02 16 C 5.72 g/m*3 16 C 0 km/h
328 20-06-2010 17:28:02 16.2 C 5.79 g/m*3 16.2 C 0 km/h
329 20-06-2010 17:40:02 16 C 5.86 g/m*3 16 C 0 km/h
330 20-06-2010 17:52:02 16.4 C 6.14 g/m*3 16.4 C 0 km/h
331 20-06-2010 18:04:03 16.5 C 6.32 g/m*3 16.5 C 0 km/h
332 20-06-2010 18:16:02 16.2 C 6.34 g/m*3 16.2 C 0 km/h
333 20-06-2010 18:28:02 16.4 C 6.28 g/m*3 16.4 C 0 km/h
334 20-06-2010 18:40:02 16.3 C 6.24 g/m*3 16.3 C 0 km/h
335 20-06-2010 18:52:02 16.2 C 6.07 g/m*3 16.2 C 0 km/h
336 20-06-2010 19:04:02 15.9 C 5.96 g/m*3 15.9 C 0 km/h
337 20-06-2010 19:16:01 15.7 C 5.89 g/m*3 15.7 C 0 km/h
338 20-06-2010 19:28:01 15.4 C 5.91 g/m*3 15.4 C 0 km/h
339 20-06-2010 19:40:02 15.6 C 6.12 g/m*3 15.6 C 0 km/h
340 20-06-2010 19:52:02 15.8 C 6.19 g/m*3 15.8 C 0 km/h
341 20-06-2010 20:04:02 15.6 C 6.25 g/m*3 15.6 C 0 km/h
342 20-06-2010 20:16:01 15.3 C 6.01 g/m*3 15.3 C 0 km/h
343 20-06-2010 20:28:01 15.2 C 6.1 g/m*3 15.2 C 0 km/h
344 20-06-2010 20:40:02 15.1 C 6.19 g/m*3 15.1 C 0 km/h
345 20-06-2010 20:52:02 15 C 6.28 g/m*3 15 C 0 km/h
346 20-06-2010 21:04:02 14.8 C 6.59 g/m*3 14.8 C 0 km/h
347 20-06-2010 21:16:01 14.7 C 6.55 g/m*3 14.7 C 0 km/h
348 20-06-2010 21:28:01 14.6 C 6.63 g/m*3 14.6 C 0 km/h
349 20-06-2010 21:40:02 14.5 C 6.84 g/m*3 14.5 C 0 km/h
350 20-06-2010 21:52:02 14.3 C 6.76 g/m*3 14.3 C 0 km/h
Sensor: Nr:Datum:Temp:Abs-Feuchte:Windchill:Wind:
Aussen-T/F 351 20-06-2010 22:04:02 14.2 C 6.84 g/m*3 14.2 C 0 km/h
352 20-06-2010 22:17:02 14 C 6.75 g/m*3 14 C 0 km/h
353 20-06-2010 22:29:02 13.8 C 6.91 g/m*3 13.8 C 0 km/h
354 20-06-2010 22:41:02 13.5 C 6.9 g/m*3 13.5 C 0 km/h
355 20-06-2010 22:53:02 13.4 C 6.97 g/m*3 13.4 C 0 km/h
356 20-06-2010 23:05:02 13.2 C 6.89 g/m*3 13.2 C 0 km/h
357 20-06-2010 23:17:02 13 C 6.92 g/m*3 13 C 0 km/h
358 20-06-2010 23:29:02 12.6 C 6.97 g/m*3 12.6 C 0 km/h
359 20-06-2010 23:41:02 12.3 C 6.84 g/m*3 12.3 C 0 km/h
360 20-06-2010 23:53:02 12.1 C 6.97 g/m*3 12.1 C 0 km/h
361 21-06-2010 00:05:02 11.9 C 7.1 g/m*3 11.9 C 0 km/h
362 21-06-2010 00:17:02 11.8 C 7.05 g/m*3 11.8 C 0 km/h
363 21-06-2010 00:29:02 11.4 C 6.98 g/m*3 11.4 C 0 km/h
364 21-06-2010 00:41:02 11.2 C 7.1 g/m*3 11.2 C 0 km/h
365 21-06-2010 00:53:03 11.2 C 7.1 g/m*3 11.2 C 0 km/h
366 21-06-2010 01:05:03 11.1 C 6.95 g/m*3 11.1 C 0 km/h
367 21-06-2010 01:17:03 11.1 C 7.05 g/m*3 11.1 C 0 km/h
368 21-06-2010 01:29:03 11 C 7.01 g/m*3 11 C 0 km/h
369 21-06-2010 01:41:03 10.8 C 7.02 g/m*3 10.8 C 0 km/h
370 21-06-2010 01:53:03 10.7 C 7.07 g/m*3 10.7 C 0 km/h
371 21-06-2010 02:05:03 10.5 C 6.98 g/m*3 10.5 C 0 km/h
372 21-06-2010 02:17:03 10.4 C 7.04 g/m*3 10.4 C 0 km/h
373 21-06-2010 02:29:03 10.1 C 6.9 g/m*3 10.1 C 0 km/h
374 21-06-2010 02:41:03 10.2 C 7.04 g/m*3 10.2 C 0 km/h
375 21-06-2010 02:53:03 10.2 C 6.95 g/m*3 10.2 C 0 km/h
Sensor: Nr:Datum:Temp:Abs-Feuchte:Windchill:Wind:
Aussen-T/F 376 21-06-2010 03:05:03 10 C 6.86 g/m*3 10 C 0 km/h
377 21-06-2010 03:17:03 9.8 C 6.87 g/m*3 9.8 C 0 km/h
378 21-06-2010 03:29:03 9.6 C 6.78 g/m*3 9.6 C 0 km/h
379 21-06-2010 03:41:03 9.5 C 6.83 g/m*3 9.5 C 0 km/h
380 21-06-2010 03:53:03 9.3 C 6.74 g/m*3 9.3 C 0 km/h
381 21-06-2010 04:05:03 9.1 C 6.74 g/m*3 9.1 C 0 km/h
382 21-06-2010 04:17:03 9.1 C 6.83 g/m*3 9.1 C 0 km/h
383 21-06-2010 04:29:03 9.2 C 6.97 g/m*3 9.2 C 0 km/h
384 21-06-2010 04:41:03 9.4 C 6.96 g/m*3 9.4 C 0 km/h
385 21-06-2010 04:53:03 9 C 6.79 g/m*3 9 C 0 km/h
386 21-06-2010 05:05:04 8.8 C 6.88 g/m*3 8.8 C 0 km/h
387 21-06-2010 05:17:04 8.7 C 6.83 g/m*3 8.7 C 0 km/h
388 21-06-2010 05:29:04 8.7 C 6.92 g/m*3 8.7 C 0 km/h
389 21-06-2010 05:41:04 8.6 C 6.87 g/m*3 8.6 C 0 km/h
390 21-06-2010 05:53:04 8.6 C 6.96 g/m*3 8.6 C 0 km/h
391 21-06-2010 06:05:04 8.5 C 7 g/m*3 8.5 C 0 km/h
392 21-06-2010 06:17:04 8.5 C 7 g/m*3 8.5 C 0 km/h
393 21-06-2010 06:29:04 8.6 C 7.13 g/m*3 8.6 C 0 km/h
394 21-06-2010 06:41:04 8.6 C 7.22 g/m*3 8.6 C 0 km/h
395 21-06-2010 06:53:02 8.9 C 7.36 g/m*3 8.9 C 0 km/h
396 21-06-2010 07:05:03 9.1 C 7.36 g/m*3 9.1 C 0 km/h
397 21-06-2010 07:17:03 9.5 C 7.46 g/m*3 9.5 C 0 km/h
398 21-06-2010 07:29:03 9.8 C 7.33 g/m*3 9.8 C 0 km/h
399 21-06-2010 07:41:03 10.6 C 7.22 g/m*3 10.6 C 0 km/h
400 21-06-2010 07:53:02 11.5 C 7.23 g/m*3 11.5 C 0 km/h
Sensor: Nr:Datum:Temp:Abs-Feuchte:Windchill:Wind:
Aussen-T/F 401 21-06-2010 08:05:02 12.1 C 7.18 g/m*3 12.1 C 0 km/h
402 21-06-2010 08:17:02 12.3 C 6.95 g/m*3 12.3 C 0 km/h
403 21-06-2010 08:29:02 12.4 C 6.77 g/m*3 12.4 C 0 km/h
404 21-06-2010 08:41:02 12.7 C 6.9 g/m*3 12.7 C 0 km/h
405 21-06-2010 08:53:02 13.2 C 6.77 g/m*3 13.2 C 0 km/h
406 21-06-2010 09:05:01 13.4 C 6.63 g/m*3 13.4 C 0 km/h
407 21-06-2010 09:17:02 13.4 C 6.16 g/m*3 13.4 C 0 km/h
408 21-06-2010 09:29:03 13.7 C 6.39 g/m*3 13.7 C 0 km/h
409 21-06-2010 09:41:01 14.2 C 5.86 g/m*3 14.2 C 0 km/h
410 21-06-2010 09:53:02 14 C 5.43 g/m*3 14 C 0 km/h
411 21-06-2010 10:05:01 13.9 C 5.39 g/m*3 13.9 C 0 km/h
412 21-06-2010 10:17:02 13.9 C 5.63 g/m*3 13.9 C 0 km/h
413 21-06-2010 10:29:02 13.5 C 6.08 g/m*3 13.5 C 0 km/h
414 21-06-2010 10:41:01 13.5 C 5.97 g/m*3 13.5 C 0 km/h
415 21-06-2010 10:53:02 14 C 5.55 g/m*3 14 C 0 km/h
416 21-06-2010 11:05:02 14.7 C 5.67 g/m*3 14.7 C 0 km/h
417 21-06-2010 11:17:02 14.7 C 5.16 g/m*3 14.7 C 0 km/h
418 21-06-2010 11:29:02 14.2 C 5.13 g/m*3 14.2 C 0 km/h
419 21-06-2010 11:41:02 14.4 C 5.44 g/m*3 14.4 C 0 km/h
420 21-06-2010 11:53:02 15.4 C 5.52 g/m*3 15.4 C 0 km/h
421 21-06-2010 12:05:01 16.3 C 5.27 g/m*3 16.3 C 0 km/h
422 21-06-2010 12:17:02 16.5 C 5.34 g/m*3 16.5 C 0 km/h
423 21-06-2010 12:29:02 16 C 5.18 g/m*3 16 C 0 km/h
424 21-06-2010 12:41:02 14.8 C 5.19 g/m*3 14.8 C 0 km/h
425 21-06-2010 12:53:01 15 C 5.39 g/m*3 15 C 0 km/h
Sensor: Nr:Datum:Temp:Abs-Feuchte:Windchill:Wind:
Aussen-T/F 426 21-06-2010 13:05:02 14.7 C 5.29 g/m*3 14.7 C 0 km/h
427 21-06-2010 13:17:01 15.2 C 5.19 g/m*3 15.2 C 0 km/h
428 21-06-2010 13:29:01 16 C 5.04 g/m*3 16 C 0 km/h
429 21-06-2010 13:41:02 18 C 5.07 g/m*3 18 C 0 km/h
430 21-06-2010 13:53:02 19.6 C 4.9 g/m*3 19.6 C 0 km/h
431 21-06-2010 14:05:02 19.3 C 4.81 g/m*3 19.3 C 0 km/h
432 21-06-2010 14:17:01 18.2 C 4.66 g/m*3 18.2 C 0 km/h
433 21-06-2010 14:29:01 18.7 C 4.48 g/m*3 18.7 C 0 km/h
434 21-06-2010 14:41:02 18.9 C 4.86 g/m*3 18.9 C 0 km/h
435 21-06-2010 14:53:02 18 C 4.61 g/m*3 18 C 0 km/h
436 21-06-2010 15:05:02 17.7 C 4.38 g/m*3 17.7 C 0 km/h
437 21-06-2010 15:17:02 18.4 C 4.88 g/m*3 18.4 C 0 km/h
438 21-06-2010 15:29:02 20 C 4.49 g/m*3 20 C 0 km/h
439 21-06-2010 15:41:02 18.7 C 4.8 g/m*3 18.7 C 0 km/h
440 21-06-2010 15:53:02 18.5 C 4.27 g/m*3 18.5 C 0 km/h
441 21-06-2010 16:05:02 19 C 4.56 g/m*3 19 C 0 km/h
442 21-06-2010 16:17:02 20 C 4.67 g/m*3 20 C 0 km/h
443 21-06-2010 16:29:02 21.2 C 4.63 g/m*3 21.2 C 0 km/h
444 21-06-2010 16:41:02 21 C 4.21 g/m*3 21 C 0 km/h
445 21-06-2010 16:53:02 22.6 C 4.42 g/m*3 22.6 C 0 km/h
446 21-06-2010 17:05:02 21 C 4.03 g/m*3 21 C 0 km/h
447 21-06-2010 17:17:03 20.6 C 4.47 g/m*3 20.6 C 0 km/h
448 21-06-2010 17:29:03 19.3 C 4.64 g/m*3 19.3 C 0 km/h
449 21-06-2010 17:41:02 18.7 C 4.8 g/m*3 18.7 C 0 km/h
450 21-06-2010 17:53:02 18.3 C 5 g/m*3 18.3 C 0 km/h
Sensor: Nr:Datum:Temp:Abs-Feuchte:Windchill:Wind:
Aussen-T/F 451 21-06-2010 18:05:02 18.4 C 5.03 g/m*3 18.4 C 0 km/h
452 21-06-2010 18:17:02 18.2 C 4.82 g/m*3 18.2 C 0 km/h
453 21-06-2010 18:29:02 18.4 C 5.03 g/m*3 18.4 C 0 km/h
454 21-06-2010 18:41:02 18.2 C 4.82 g/m*3 18.2 C 0 km/h
455 21-06-2010 18:53:02 18.4 C 5.03 g/m*3 18.4 C 0 km/h
456 21-06-2010 19:05:02 18.2 C 4.97 g/m*3 18.2 C 0 km/h
457 21-06-2010 19:17:02 17.6 C 5.1 g/m*3 17.6 C 0 km/h
458 21-06-2010 19:29:03 17.4 C 5.19 g/m*3 17.4 C 0 km/h
459 21-06-2010 19:41:02 17.3 C 5.3 g/m*3 17.3 C 0 km/h
460 21-06-2010 19:53:02 17.2 C 5.13 g/m*3 17.2 C 0 km/h
461 21-06-2010 20:05:01 17.2 C 5.86 g/m*3 17.2 C 0 km/h
462 21-06-2010 20:17:02 17.2 C 5.71 g/m*3 17.2 C 0 km/h
463 21-06-2010 20:29:02 16.9 C 6.33 g/m*3 16.9 C 0 km/h
464 21-06-2010 20:41:02 16.6 C 6.36 g/m*3 16.6 C 0 km/h
465 21-06-2010 20:53:01 16.2 C 6.48 g/m*3 16.2 C 0 km/h
466 21-06-2010 21:05:01 16 C 6.4 g/m*3 16 C 0 km/h
467 21-06-2010 21:17:02 15.6 C 6.25 g/m*3 15.6 C 0 km/h
468 21-06-2010 21:29:02 15.2 C 6.1 g/m*3 15.2 C 0 km/h
469 21-06-2010 21:41:01 14.9 C 6.25 g/m*3 14.9 C 0 km/h
470 21-06-2010 21:53:02 14.5 C 5.97 g/m*3 14.5 C 0 km/h
471 21-06-2010 22:05:02 14.2 C 6.11 g/m*3 14.2 C 0 km/h
472 21-06-2010 22:18:03 14 C 6.15 g/m*3 14 C 0 km/h
473 21-06-2010 22:30:03 13.7 C 6.16 g/m*3 13.7 C 0 km/h
474 21-06-2010 22:42:04 13.4 C 6.39 g/m*3 13.4 C 0 km/h
475 21-06-2010 22:54:04 13.4 C 6.28 g/m*3 13.4 C 0 km/h
Sensor: Nr:Datum:Temp:Abs-Feuchte:Windchill:Wind:
Aussen-T/F 476 21-06-2010 23:06:04 13.5 C 6.55 g/m*3 13.5 C 0 km/h
477 21-06-2010 23:18:04 13.4 C 6.51 g/m*3 13.4 C 0 km/h
478 21-06-2010 23:30:04 13.4 C 6.51 g/m*3 13.4 C 0 km/h
479 21-06-2010 23:42:04 13.2 C 6.43 g/m*3 13.2 C 0 km/h
480 21-06-2010 23:54:04 13.1 C 6.39 g/m*3 13.1 C 0 km/h
481 22-06-2010 00:06:04 12.8 C 6.5 g/m*3 12.8 C 0 km/h
482 22-06-2010 00:18:04 12.5 C 6.49 g/m*3 12.5 C 0 km/h
483 22-06-2010 00:30:04 12.2 C 6.58 g/m*3 12.2 C 0 km/h
484 22-06-2010 00:42:04 12.1 C 6.65 g/m*3 12.1 C 0 km/h
485 22-06-2010 00:54:04 12.1 C 6.86 g/m*3 12.1 C 0 km/h
486 22-06-2010 01:06:04 12.2 C 7.01 g/m*3 12.2 C 0 km/h
487 22-06-2010 01:18:04 12.2 C 7.01 g/m*3 12.2 C 0 km/h
488 22-06-2010 01:30:05 12.4 C 6.99 g/m*3 12.4 C 0 km/h
489 22-06-2010 01:42:05 12.2 C 7.01 g/m*3 12.2 C 0 km/h
490 22-06-2010 01:54:05 12.2 C 7.01 g/m*3 12.2 C 0 km/h
491 22-06-2010 02:06:05 12.1 C 6.97 g/m*3 12.1 C 0 km/h
492 22-06-2010 02:18:05 12.2 C 7.01 g/m*3 12.2 C 0 km/h
493 22-06-2010 02:30:05 12 C 7.03 g/m*3 12 C 0 km/h
494 22-06-2010 02:42:05 11.9 C 7.1 g/m*3 11.9 C 0 km/h
495 22-06-2010 02:54:05 11.9 C 7.2 g/m*3 11.9 C 0 km/h
496 22-06-2010 03:06:05 11.9 C 7.31 g/m*3 11.9 C 0 km/h
497 22-06-2010 03:18:05 11.8 C 7.26 g/m*3 11.8 C 0 km/h
498 22-06-2010 03:30:05 11.7 C 7.22 g/m*3 11.7 C 0 km/h
499 22-06-2010 03:42:05 11.8 C 7.26 g/m*3 11.8 C 0 km/h
500 22-06-2010 03:54:05 11.9 C 7.41 g/m*3 11.9 C 0 km/h
Sensor: Nr:Datum:Temp:Abs-Feuchte:Windchill:Wind:
Aussen-T/F 501 22-06-2010 04:06:05 11.5 C 7.33 g/m*3 11.5 C 0 km/h
502 22-06-2010 04:18:05 11.4 C 7.29 g/m*3 11.4 C 0 km/h
503 22-06-2010 04:30:05 11.5 C 7.44 g/m*3 11.5 C 0 km/h
504 22-06-2010 04:42:05 11.5 C 7.44 g/m*3 11.5 C 0 km/h
505 22-06-2010 04:54:05 11.5 C 7.44 g/m*3 11.5 C 0 km/h
506 22-06-2010 05:06:05 11.5 C 7.54 g/m*3 11.5 C 0 km/h
507 22-06-2010 05:18:05 11.4 C 7.49 g/m*3 11.4 C 0 km/h
508 22-06-2010 05:30:05 11.4 C 7.49 g/m*3 11.4 C 0 km/h
509 22-06-2010 05:42:05 11.5 C 7.54 g/m*3 11.5 C 0 km/h
510 22-06-2010 05:54:05 11.4 C 7.39 g/m*3 11.4 C 0 km/h
511 22-06-2010 06:06:06 11.5 C 7.54 g/m*3 11.5 C 0 km/h
512 22-06-2010 06:18:06 11.5 C 7.54 g/m*3 11.5 C 0 km/h
513 22-06-2010 06:30:06 11.6 C 7.69 g/m*3 11.6 C 0 km/h
514 22-06-2010 06:42:03 11.6 C 7.69 g/m*3 11.6 C 0 km/h
515 22-06-2010 06:54:02 11.7 C 7.64 g/m*3 11.7 C 0 km/h
516 22-06-2010 07:06:02 11.9 C 7.73 g/m*3 11.9 C 0 km/h
517 22-06-2010 07:18:02 12 C 7.67 g/m*3 12 C 0 km/h
518 22-06-2010 07:30:02 12.1 C 7.61 g/m*3 12.1 C 0 km/h
519 22-06-2010 07:42:02 12.4 C 7.65 g/m*3 12.4 C 0 km/h
520 22-06-2010 07:54:01 12.8 C 7.73 g/m*3 12.8 C 0 km/h
521 22-06-2010 08:06:02 13.1 C 7.65 g/m*3 13.1 C 0 km/h
522 22-06-2010 08:18:02 13 C 7.14 g/m*3 13 C 0 km/h
523 22-06-2010 08:30:02 12.9 C 7.44 g/m*3 12.9 C 0 km/h
524 22-06-2010 08:42:02 12.9 C 7.66 g/m*3 12.9 C 0 km/h
525 22-06-2010 08:54:02 13.1 C 7.53 g/m*3 13.1 C 0 km/h
Sensor: Nr:Datum:Temp:Abs-Feuchte:Windchill:Wind:
Aussen-T/F 526 22-06-2010 09:06:01 13.5 C 7.49 g/m*3 13.5 C 0 km/h
527 22-06-2010 09:18:02 14.2 C 7.45 g/m*3 14.2 C 0 km/h
528 22-06-2010 09:30:03 15.1 C 7.61 g/m*3 15.1 C 0 km/h
529 22-06-2010 09:42:01 15.8 C 7.4 g/m*3 15.8 C 0 km/h
530 22-06-2010 09:54:02 16.4 C 6.7 g/m*3 16.4 C 0 km/h
531 22-06-2010 10:06:01 17.3 C 6.19 g/m*3 17.3 C 0 km/h
532 22-06-2010 10:18:01 17.9 C 6.11 g/m*3 17.9 C 0 km/h
533 22-06-2010 10:30:01 18.7 C 6.56 g/m*3 18.7 C 0 km/h
534 22-06-2010 10:42:02 19.5 C 6.55 g/m*3 19.5 C 0 km/h
535 22-06-2010 10:54:02 20.2 C 6.47 g/m*3 20.2 C 0 km/h
536 22-06-2010 11:06:01 20.7 C 5.94 g/m*3 20.7 C 0 km/h
537 22-06-2010 11:18:02 20.1 C 6.08 g/m*3 20.1 C 0 km/h
538 22-06-2010 11:30:02 20.4 C 5.84 g/m*3 20.4 C 0 km/h
539 22-06-2010 11:42:02 20.4 C 5.66 g/m*3 20.4 C 0 km/h
540 22-06-2010 11:54:02 19.6 C 5.57 g/m*3 19.6 C 0 km/h
541 22-06-2010 12:06:03 21.4 C 6 g/m*3 21.4 C 0 km/h
542 22-06-2010 12:18:02 23.3 C 5.23 g/m*3 23.3 C 0 km/h
543 22-06-2010 12:30:02 20.7 C 5.4 g/m*3 20.7 C 0 km/h
544 22-06-2010 12:42:02 19.9 C 5.5 g/m*3 19.9 C 0 km/h
545 22-06-2010 12:54:01 20.1 C 5.21 g/m*3 20.1 C 0 km/h
546 22-06-2010 13:06:02 22.5 C 4.99 g/m*3 22.5 C 0 km/h
547 22-06-2010 13:18:01 20.4 C 5.31 g/m*3 20.4 C 0 km/h
548 22-06-2010 13:30:01 20.7 C 5.4 g/m*3 20.7 C 0 km/h
549 22-06-2010 13:42:01 22.1 C 5.47 g/m*3 22.1 C 0 km/h
550 22-06-2010 13:54:01 22.7 C 5.25 g/m*3 22.7 C 0 km/h
Sensor: Nr:Datum:Temp:Abs-Feuchte:Windchill:Wind:
Aussen-T/F 551 22-06-2010 14:06:02 23 C 4.93 g/m*3 23 C 0 km/h
552 22-06-2010 14:18:01 23.1 C 5.37 g/m*3 23.1 C 0 km/h
553 22-06-2010 14:30:01 23.2 C 5.41 g/m*3 23.2 C 0 km/h
554 22-06-2010 14:42:01 23.3 C 5.23 g/m*3 23.3 C 0 km/h
555 22-06-2010 14:54:01 23.9 C 4.98 g/m*3 23.9 C 0 km/h
556 22-06-2010 15:06:02 23.9 C 4.98 g/m*3 23.9 C 0 km/h
557 22-06-2010 15:18:02 24.7 C 4.75 g/m*3 24.7 C 0 km/h
558 22-06-2010 15:30:02 24.9 C 5.49 g/m*3 24.9 C 0 km/h
559 22-06-2010 15:42:01 25 C 5.06 g/m*3 25 C 0 km/h
560 22-06-2010 15:54:02 24.2 C 4.4 g/m*3 24.2 C 0 km/h
561 22-06-2010 16:06:01 23.3 C 4.81 g/m*3 23.3 C 0 km/h
562 22-06-2010 16:18:02 23.4 C 5.26 g/m*3 23.4 C 0 km/h
563 22-06-2010 16:30:02 24.9 C 5.04 g/m*3 24.9 C 0 km/h
564 22-06-2010 16:42:01 26 C 4.87 g/m*3 26 C 0 km/h
565 22-06-2010 16:54:03 23.8 C 4.73 g/m*3 23.8 C 0 km/h
566 22-06-2010 17:06:02 23.6 C 5.32 g/m*3 23.6 C 0 km/h
567 22-06-2010 17:18:02 22.8 C 5.08 g/m*3 22.8 C 0 km/h
568 22-06-2010 17:30:03 22.7 C 5.25 g/m*3 22.7 C 0 km/h
569 22-06-2010 17:42:02 23.3 C 5.23 g/m*3 23.3 C 0 km/h
570 22-06-2010 17:54:02 24.1 C 5.03 g/m*3 24.1 C 0 km/h
571 22-06-2010 18:06:01 23.7 C 4.92 g/m*3 23.7 C 0 km/h
572 22-06-2010 18:18:02 23.8 C 6.24 g/m*3 23.8 C 0 km/h
573 22-06-2010 18:30:02 23.3 C 6.48 g/m*3 23.3 C 0 km/h
574 22-06-2010 18:42:02 22.6 C 6.63 g/m*3 22.6 C 0 km/h
575 22-06-2010 18:54:01 22.3 C 6.91 g/m*3 22.3 C 0 km/h
Sensor: Nr:Datum:Temp:Abs-Feuchte:Windchill:Wind:
Aussen-T/F 576 22-06-2010 19:06:02 22.7 C 6.67 g/m*3 22.7 C 0 km/h
577 22-06-2010 19:18:01 23.3 C 6.27 g/m*3 23.3 C 0 km/h
578 22-06-2010 19:30:01 23.9 C 6.06 g/m*3 23.9 C 0 km/h
579 22-06-2010 19:42:02 24 C 5.87 g/m*3 24 C 0 km/h
580 22-06-2010 19:54:02 23.5 C 6.56 g/m*3 23.5 C 0 km/h
581 22-06-2010 20:06:02 22.8 C 6.5 g/m*3 22.8 C 0 km/h
582 22-06-2010 20:18:01 22.1 C 6.44 g/m*3 22.1 C 0 km/h
583 22-06-2010 20:30:01 21.1 C 6.63 g/m*3 21.1 C 0 km/h
584 22-06-2010 20:42:02 20 C 6.74 g/m*3 20 C 0 km/h
585 22-06-2010 20:54:02 19.2 C 6.76 g/m*3 19.2 C 0 km/h
586 22-06-2010 21:06:02 18.9 C 6.64 g/m*3 18.9 C 0 km/h
587 22-06-2010 21:18:01 18.3 C 6.41 g/m*3 18.3 C 0 km/h
588 22-06-2010 21:30:01 18 C 6.45 g/m*3 18 C 0 km/h
589 22-06-2010 21:42:02 17.6 C 6.45 g/m*3 17.6 C 0 km/h
590 22-06-2010 21:54:02 17.3 C 6.33 g/m*3 17.3 C 0 km/h
591 22-06-2010 22:06:02 16.8 C 6.72 g/m*3 16.8 C 0 km/h
592 22-06-2010 22:18:02 16.7 C 6.82 g/m*3 16.7 C 0 km/h
593 22-06-2010 22:30:02 16.3 C 6.8 g/m*3 16.3 C 0 km/h
594 22-06-2010 22:42:02 16 C 6.81 g/m*3 16 C 0 km/h
595 22-06-2010 22:55:05 15.8 C 6.87 g/m*3 15.8 C 0 km/h
596 22-06-2010 23:07:05 15.5 C 7.01 g/m*3 15.5 C 0 km/h
597 22-06-2010 23:19:05 15.2 C 6.88 g/m*3 15.2 C 0 km/h
598 22-06-2010 23:31:05 14.9 C 6.88 g/m*3 14.9 C 0 km/h
599 22-06-2010 23:43:05 14.7 C 7.05 g/m*3 14.7 C 0 km/h
600 22-06-2010 23:55:05 14.6 C 7.13 g/m*3 14.6 C 0 km/h

Legende:
   Min
   Max


Maximal/Minimal-Werte vom 14.04.2020 - 16.05.2020

Sensor Min Max Avg
Temp
(Aussen-T/F)
-0.1 °C
15-04-2020  06:55:00
26.2 °C
17-04-2020  18:05:00
11.98 °C

Die Daten stammen von einer Davis Vantage Pro 2 Wetter-Station und werden unter Linux mit der Software wview2wettercgi und aufbereitet. Alle Angaben erfolgen ohne Gewähr für ihre Vollständigkeit oder Richtigkeit.
Kontakt: Rainer Krienke krienke@uni-koblenz.de . Meine Webseiten an der Uni Koblenz oder privat.
Version: $Revision: 0.78 $